createdAt,value
2023-01-27T12:47:50.236Z,70
2023-01-27T12:49:13.956Z,71
2023-01-27T12:50:42.951Z,70
2023-01-27T12:52:03.773Z,70
2023-01-27T12:53:32.106Z,69
2023-01-27T12:54:52.600Z,69
2023-01-27T12:56:16.250Z,69
2023-01-27T12:57:40.332Z,68
2023-01-27T12:59:01.888Z,69
2023-01-27T13:00:35.188Z,69
2023-01-27T13:02:10.613Z,69
2023-01-27T13:03:35.995Z,69
2023-01-27T13:04:57.048Z,68
2023-01-27T13:06:28.516Z,68
2023-01-27T13:08:07.545Z,68
2023-01-27T13:09:35.530Z,68
2023-01-27T13:11:11.808Z,68
2023-01-27T13:12:30.974Z,68
2023-01-27T13:13:59.450Z,69
2023-01-27T13:15:27.580Z,68
2023-01-27T13:16:52.032Z,68
2023-01-27T13:18:06.476Z,68
2023-01-27T13:19:36.063Z,68
2023-01-27T13:20:56.989Z,68
2023-01-27T13:22:21.774Z,68
2023-01-27T13:23:42.486Z,68
2023-01-27T13:24:56.201Z,68
2023-01-27T13:26:14.691Z,67
2023-01-27T13:27:33.695Z,66
2023-01-27T13:28:52.490Z,67
2023-01-27T13:30:13.396Z,67
2023-01-27T13:31:35.649Z,67
2023-01-27T13:32:55.623Z,66
2023-01-27T13:34:12.531Z,66
2023-01-27T13:35:36.994Z,67
2023-01-27T13:36:52.476Z,66
2023-01-27T13:38:13.029Z,66
2023-01-27T13:39:37.336Z,67
2023-01-27T13:41:14.328Z,67
2023-01-27T13:42:40.440Z,67
2023-01-27T13:44:00.971Z,67
2023-01-27T13:45:18.942Z,67
2023-01-27T13:46:35.663Z,68
2023-01-27T13:47:48.987Z,68
2023-01-27T13:49:16.064Z,68
2023-01-27T13:50:35.849Z,67
2023-01-27T13:51:53.804Z,67
2023-01-27T13:53:09.425Z,67
2023-01-27T13:54:25.477Z,67
2023-01-27T13:55:38.756Z,68
2023-01-27T13:56:52.316Z,68
2023-01-27T13:58:18.280Z,68
2023-01-27T13:59:43.799Z,67
2023-01-27T14:01:09.263Z,67
2023-01-27T14:02:32.174Z,66
2023-01-27T14:04:02.614Z,66
2023-01-27T14:05:27.029Z,66
2023-01-27T14:06:50.683Z,66
2023-01-27T14:08:11.916Z,66
2023-01-27T14:09:33.304Z,66
2023-01-27T14:10:50.936Z,66
2023-01-27T14:12:07.995Z,66
2023-01-27T14:13:28.099Z,66
2023-01-27T14:14:49.207Z,66
2023-01-27T14:15:54.311Z,65
2023-01-27T14:17:14.216Z,66
2023-01-27T14:18:33.516Z,65
2023-01-27T14:19:58.888Z,65
2023-01-27T14:21:39.515Z,65
2023-01-27T14:22:45.831Z,65
2023-01-27T14:24:02.725Z,65
2023-01-27T14:25:24.205Z,65
2023-01-27T14:26:41.676Z,65
2023-01-27T14:28:00.390Z,65
2023-01-27T14:29:20.090Z,66
2023-01-27T14:30:37.271Z,66
2023-01-27T14:31:56.117Z,65
2023-01-27T14:33:17.388Z,66
2023-01-27T14:34:41.046Z,65
2023-01-27T14:36:09.844Z,65
2023-01-27T14:37:32.887Z,65
2023-01-27T14:38:52.524Z,65
2023-01-27T14:40:05.711Z,65
2023-01-27T14:41:29.340Z,65
2023-01-27T14:42:56.169Z,65
2023-01-27T14:44:33.740Z,64
2023-01-27T14:45:52.832Z,64
2023-01-27T14:47:13.351Z,64
2023-01-27T14:48:28.693Z,64
2023-01-27T14:49:43.803Z,64
2023-01-27T14:51:02.826Z,65
2023-01-27T14:52:17.077Z,65
2023-01-27T14:53:33.184Z,65
2023-01-27T14:54:53.730Z,64
2023-01-27T14:56:11.705Z,64
2023-01-27T14:57:30.570Z,65
2023-01-27T14:58:49.152Z,65
2023-01-27T14:59:59.614Z,64
2023-01-27T15:01:19.490Z,65
2023-01-27T15:02:38.843Z,65
2023-01-27T15:03:51.447Z,64
2023-01-27T15:05:12.330Z,64
2023-01-27T15:06:26.368Z,64
2023-01-27T15:07:42.044Z,64
2023-01-27T15:09:02.893Z,64
2023-01-27T15:10:23.472Z,64
2023-01-27T15:11:34.573Z,64
2023-01-27T15:12:47.476Z,64
2023-01-27T15:14:03.386Z,64
2023-01-27T15:15:21.918Z,64
2023-01-27T15:16:36.839Z,64
2023-01-27T15:17:54.818Z,64
2023-01-27T15:19:10.074Z,64
2023-01-27T15:20:20.544Z,64
2023-01-27T15:21:35.548Z,64
2023-01-27T15:22:54.238Z,64
2023-01-27T15:24:11.647Z,63
2023-01-27T15:25:24.058Z,63
2023-01-27T15:26:34.886Z,63
2023-01-27T15:27:42.419Z,64
2023-01-27T15:29:00.312Z,63
2023-01-27T15:30:08.065Z,64
2023-01-27T15:31:20.708Z,64
2023-01-27T15:32:32.154Z,63
2023-01-27T15:33:39.408Z,64
2023-01-27T15:34:51.773Z,63
2023-01-27T15:36:09.316Z,64
2023-01-27T15:37:25.769Z,63
2023-01-27T15:38:33.114Z,63
2023-01-27T15:39:43.427Z,64
2023-01-27T15:40:55.879Z,64
2023-01-27T15:42:05.840Z,64
2023-01-27T15:43:13.690Z,63
2023-01-27T15:44:21.608Z,63
2023-01-27T15:45:29.125Z,63
2023-01-27T15:46:37.437Z,63
2023-01-27T15:47:47.930Z,63
2023-01-27T15:48:56.109Z,63
2023-01-27T15:50:04.923Z,63
2023-01-27T15:51:15.424Z,63
2023-01-27T15:52:23.424Z,63
2023-01-27T15:53:34.770Z,63
2023-01-27T15:54:43.636Z,63
2023-01-27T15:55:50.628Z,63
2023-01-27T15:56:57.799Z,63
2023-01-27T15:58:08.500Z,63
2023-01-27T15:59:23.795Z,62
2023-01-27T16:00:30.953Z,62
2023-01-27T16:01:38.405Z,62
2023-01-27T16:02:45.618Z,62
2023-01-27T16:03:53.368Z,62
2023-01-27T16:05:09.399Z,62
2023-01-27T16:06:20.668Z,62
2023-01-27T16:07:28.727Z,63
2023-01-27T16:08:37.060Z,62
2023-01-27T16:09:46.745Z,63
2023-01-27T16:10:54.815Z,63
2023-01-27T16:12:12.684Z,62
2023-01-27T16:13:28.049Z,62
2023-01-27T16:14:37.645Z,62
2023-01-27T16:15:45.053Z,62
2023-01-27T16:16:52.331Z,62
2023-01-27T16:17:59.656Z,62
2023-01-27T16:19:11.316Z,62
2023-01-27T16:20:17.988Z,62
2023-01-27T16:21:25.973Z,62
2023-01-27T16:22:42.342Z,62
2023-01-27T16:23:49.561Z,63
2023-01-27T16:24:56.842Z,63
2023-01-27T16:26:07.018Z,63
2023-01-27T16:27:18.517Z,64
2023-01-27T16:28:27.708Z,63
2023-01-27T16:29:36.868Z,63
2023-01-27T16:30:49.855Z,63
2023-01-27T16:32:02.265Z,63
2023-01-27T16:33:17.129Z,63
2023-01-27T16:34:35.025Z,63
2023-01-27T16:35:43.001Z,63
2023-01-27T16:36:49.982Z,63
2023-01-27T16:38:07.872Z,64
2023-01-27T16:39:24.161Z,64
2023-01-27T16:40:31.630Z,63
2023-01-27T16:41:39.625Z,64
2023-01-27T16:42:46.802Z,64
2023-01-27T16:43:56.734Z,64
2023-01-27T16:45:09.057Z,64
2023-01-27T16:46:19.758Z,64
2023-01-27T16:47:37.177Z,64
2023-01-27T16:48:44.437Z,64
2023-01-27T16:49:52.756Z,65
2023-01-27T16:51:00.076Z,64
2023-01-27T16:54:25.885Z,65
2023-01-27T16:55:33.296Z,65
2023-01-27T16:56:40.324Z,65
2023-01-27T16:57:47.476Z,65
2023-01-27T16:58:54.572Z,65
2023-01-27T17:00:04.385Z,65
2023-01-27T17:01:11.805Z,65
2023-01-27T17:02:29.209Z,65
2023-01-27T17:03:36.342Z,65
2023-01-27T17:04:43.376Z,65
2023-01-27T17:05:53.150Z,64
2023-01-27T17:07:00.316Z,64
2023-01-27T17:08:07.278Z,64
2023-01-27T17:09:22.688Z,64
2023-01-27T17:10:35.619Z,64
2023-01-27T17:11:41.956Z,64
2023-01-27T17:12:49.059Z,64
2023-01-27T17:13:56.252Z,64
2023-01-27T17:15:06.307Z,64
2023-01-27T17:16:23.885Z,64
2023-01-27T17:17:39.003Z,64
2023-01-27T17:18:52.457Z,63
2023-01-27T17:19:53.318Z,63
2023-01-27T17:21:05.386Z,63
2023-01-27T17:22:12.590Z,63
2023-01-27T17:23:24.735Z,63
2023-01-27T17:24:31.966Z,63
2023-01-27T17:25:41.741Z,62
2023-01-27T17:26:48.898Z,62
2023-01-27T17:28:06.450Z,63
2023-01-27T17:29:16.270Z,63
2023-01-27T17:30:23.429Z,62
2023-01-27T17:31:30.528Z,62
2023-01-27T17:32:37.829Z,62
2023-01-27T17:33:44.875Z,62
2023-01-27T17:34:51.930Z,62
2023-01-27T17:35:59.133Z,62
2023-01-27T17:37:11.218Z,61
2023-01-27T17:38:18.354Z,62
2023-01-27T17:39:28.716Z,61
2023-01-27T17:40:35.729Z,61
2023-01-27T17:41:42.946Z,61
2023-01-27T17:42:50.190Z,61
2023-01-27T17:43:57.301Z,62
2023-01-27T17:45:04.371Z,61
2023-01-27T17:46:21.700Z,61
2023-01-27T17:47:28.839Z,61
2023-01-27T17:48:35.992Z,61
2023-01-27T17:49:43.066Z,61
2023-01-27T17:50:50.126Z,62
2023-01-27T17:51:57.437Z,61
2023-01-27T17:53:04.509Z,61
2023-01-27T17:54:11.750Z,61
2023-01-27T17:55:27.339Z,61
2023-01-27T17:56:34.478Z,61
2023-01-27T17:57:41.670Z,61
2023-01-27T17:58:48.893Z,61
2023-01-27T17:59:58.564Z,61
2023-01-27T18:01:11.114Z,61
2023-01-27T18:02:18.367Z,61
2023-01-27T18:03:30.468Z,61
2023-01-27T18:04:37.676Z,60
2023-01-27T18:05:44.862Z,61
2023-01-27T18:06:51.992Z,61
2023-01-27T18:07:59.089Z,61
2023-01-27T18:09:06.106Z,61
2023-01-27T18:10:16.315Z,61
2023-01-27T18:11:28.628Z,60
2023-01-27T18:12:35.730Z,60
2023-01-27T18:13:42.873Z,60
2023-01-27T18:14:50.092Z,60
2023-01-27T18:15:57.266Z,61
2023-01-27T18:17:14.928Z,60
2023-01-27T18:18:24.551Z,60
2023-01-27T18:19:34.787Z,60
2023-01-27T18:20:41.942Z,60
2023-01-27T18:21:49.133Z,60
2023-01-27T18:23:06.823Z,60
2023-01-27T18:24:17.197Z,60
2023-01-27T18:25:24.146Z,60
2023-01-27T18:26:31.316Z,61
2023-01-27T18:27:41.777Z,60
2023-01-27T18:28:48.650Z,60
2023-01-27T18:30:03.645Z,61
2023-01-27T18:31:11.304Z,61
2023-01-27T18:32:24.165Z,60
2023-01-27T18:33:31.472Z,61
2023-01-27T18:34:38.569Z,61
2023-01-27T18:35:48.832Z,61
2023-01-27T18:36:59.072Z,61
2023-01-27T18:38:09.097Z,61
2023-01-27T18:39:21.400Z,61
2023-01-27T18:40:33.691Z,60
2023-01-27T18:41:40.974Z,61
2023-01-27T18:42:50.428Z,61
2023-01-27T18:43:57.596Z,61
2023-01-27T18:45:04.708Z,60
2023-01-27T18:46:11.893Z,61
2023-01-27T18:47:19.044Z,61
2023-01-27T18:48:32.109Z,60
2023-01-27T18:49:39.406Z,61
2023-01-27T18:50:46.487Z,60
2023-01-27T18:51:53.557Z,60
2023-01-27T18:53:00.822Z,60
2023-01-27T18:54:08.204Z,61
2023-01-27T18:55:15.915Z,61
2023-01-27T18:56:22.984Z,61
2023-01-27T18:57:30.278Z,61
2023-01-27T18:58:37.487Z,61
2023-01-27T18:59:44.543Z,61
2023-01-27T19:00:51.651Z,61
2023-01-27T19:01:58.896Z,62
2023-01-27T19:03:06.019Z,61
2023-01-27T19:04:13.034Z,61
2023-01-27T19:05:20.254Z,61
2023-01-27T19:06:27.469Z,61
2023-01-27T19:07:34.331Z,61
2023-01-27T19:08:41.575Z,61
2023-01-27T19:09:48.699Z,61
2023-01-27T19:10:55.928Z,61
2023-01-27T19:12:03.046Z,61
2023-01-27T19:13:09.974Z,61
2023-01-27T19:14:17.151Z,61
2023-01-27T19:15:24.267Z,61
2023-01-27T19:16:31.595Z,61
2023-01-27T19:17:38.511Z,61
2023-01-27T19:18:45.639Z,61
2023-01-27T19:19:52.831Z,61
2023-01-27T19:20:59.935Z,61
2023-01-27T19:22:06.951Z,61
2023-01-27T19:23:16.685Z,61
2023-01-27T19:24:23.870Z,61
2023-01-27T19:25:30.926Z,61
2023-01-27T19:26:38.074Z,61
2023-01-27T19:27:45.250Z,61
2023-01-27T19:28:54.865Z,61
2023-01-27T19:30:01.993Z,61
2023-01-27T19:31:19.349Z,61
2023-01-27T19:32:26.431Z,61
2023-01-27T19:33:33.464Z,61
2023-01-27T19:34:40.607Z,61
2023-01-27T19:35:47.695Z,61
2023-01-27T19:37:00.995Z,61
2023-01-27T19:38:08.130Z,61
2023-01-27T19:39:15.263Z,61
2023-01-27T19:40:22.372Z,61
2023-01-27T19:41:29.536Z,61
2023-01-27T19:42:36.623Z,61
2023-01-27T19:43:50.926Z,61
2023-01-27T19:44:58.059Z,61
2023-01-27T19:46:05.219Z,61
2023-01-27T19:47:14.808Z,62
2023-01-27T19:48:21.883Z,62
2023-01-27T19:49:29.055Z,61
2023-01-27T19:50:36.201Z,62
2023-01-27T19:51:43.408Z,62
2023-01-27T19:52:50.576Z,62
2023-01-27T19:53:57.684Z,62
2023-01-27T19:55:04.770Z,62
2023-01-27T19:56:12.410Z,62
2023-01-27T19:57:22.066Z,61
2023-01-27T19:58:29.197Z,62
2023-01-27T19:59:36.384Z,62
2023-01-27T20:00:43.533Z,62
2023-01-27T20:01:50.754Z,63
2023-01-27T20:02:57.674Z,63
2023-01-27T20:04:04.927Z,64
2023-01-27T20:05:11.998Z,63
2023-01-27T20:06:19.063Z,63
2023-01-27T20:07:26.140Z,63
2023-01-27T20:08:33.315Z,64
2023-01-27T20:09:40.480Z,63
2023-01-27T20:10:47.562Z,64
2023-01-27T20:11:54.774Z,64
2023-01-27T20:13:01.984Z,64
2023-01-27T20:14:09.384Z,64
2023-01-27T20:15:16.851Z,64
2023-01-27T20:16:23.728Z,64
2023-01-27T20:17:30.913Z,65
2023-01-27T20:18:39.625Z,64
2023-01-27T20:19:46.826Z,64
2023-01-27T20:20:54.679Z,64
2023-01-27T20:22:02.132Z,64
2023-01-27T20:23:11.132Z,64
2023-01-27T20:24:21.058Z,64
2023-01-27T20:25:29.377Z,64
2023-01-27T20:26:36.467Z,64
2023-01-27T20:27:43.755Z,64
2023-01-27T20:28:50.851Z,64
2023-01-27T20:29:58.742Z,64
2023-01-27T20:31:06.227Z,63
2023-01-27T20:32:13.163Z,63
2023-01-27T20:33:20.661Z,63
2023-01-27T20:34:29.807Z,63
2023-01-27T20:35:38.260Z,64
2023-01-27T20:36:45.490Z,64
2023-01-27T20:37:53.503Z,64
2023-01-27T20:39:00.799Z,63
2023-01-27T20:40:09.575Z,63
2023-01-27T20:41:16.852Z,63
2023-01-27T20:42:24.025Z,63
2023-01-27T20:43:35.805Z,63
2023-01-27T20:44:39.506Z,63
2023-01-27T20:45:47.375Z,63
2023-01-27T20:46:55.594Z,63
2023-01-27T20:48:03.094Z,63
2023-01-27T20:49:10.723Z,63
2023-01-27T20:50:18.021Z,63
2023-01-27T20:51:25.204Z,63
2023-01-27T20:52:33.867Z,63
2023-01-27T20:53:41.154Z,63
2023-01-27T20:54:52.113Z,63
2023-01-27T20:56:01.042Z,63
2023-01-27T20:57:08.951Z,63
2023-01-27T20:58:16.007Z,62
2023-01-27T20:59:23.163Z,63
2023-01-27T21:00:30.244Z,63
2023-01-27T21:01:37.375Z,63
2023-01-27T21:02:44.530Z,63
2023-01-27T21:03:52.020Z,63
2023-01-27T21:04:59.298Z,63
2023-01-27T21:06:07.353Z,63
2023-01-27T21:07:15.542Z,63
2023-01-27T21:08:22.778Z,63
2023-01-27T21:09:29.939Z,63
2023-01-27T21:10:37.390Z,63
2023-01-27T21:11:45.070Z,63
2023-01-27T21:12:52.680Z,63
2023-01-27T21:13:59.958Z,63
2023-01-27T21:15:07.109Z,63
2023-01-27T21:16:14.463Z,63
2023-01-27T21:17:21.308Z,62
2023-01-27T21:18:29.325Z,63
2023-01-27T21:19:36.662Z,63
2023-01-27T21:20:43.913Z,63
2023-01-27T21:21:54.990Z,62
2023-01-27T21:23:02.523Z,63
2023-01-27T21:24:09.956Z,63
2023-01-27T21:25:18.163Z,63
2023-01-27T21:26:26.328Z,63
2023-01-27T21:27:34.253Z,63
2023-01-27T21:28:42.643Z,63
2023-01-27T21:29:49.990Z,62
2023-01-27T21:30:58.889Z,63
2023-01-27T21:32:11.880Z,63
2023-01-27T21:33:20.845Z,63
2023-01-27T21:34:29.372Z,62
2023-01-27T21:35:36.480Z,63
2023-01-27T21:36:43.473Z,63
2023-01-27T21:37:50.624Z,63
2023-01-27T21:38:57.979Z,63
2023-01-27T21:40:07.068Z,63
2023-01-27T21:41:16.482Z,63
2023-01-27T21:42:28.853Z,63
2023-01-27T21:43:41.196Z,62
2023-01-27T21:44:53.426Z,63
2023-01-27T21:46:05.738Z,63
2023-01-27T21:47:14.870Z,63
2023-01-27T21:48:23.085Z,63
2023-01-27T21:49:30.527Z,63
2023-01-27T21:50:37.634Z,63
2023-01-27T21:51:45.637Z,63
2023-01-27T21:52:53.944Z,63
2023-01-27T21:54:01.011Z,63
2023-01-27T21:55:08.753Z,63
2023-01-27T21:56:20.854Z,63
2023-01-27T21:57:29.089Z,63
2023-01-27T21:58:36.282Z,63
2023-01-27T21:59:43.685Z,63
2023-01-27T22:00:51.995Z,63
2023-01-27T22:01:59.367Z,63
2023-01-27T22:03:08.118Z,62
2023-01-27T22:04:16.264Z,63
2023-01-27T22:05:23.733Z,63
2023-01-27T22:06:30.617Z,63
2023-01-27T22:07:37.925Z,63
2023-01-27T22:08:45.222Z,62
2023-01-27T22:09:56.522Z,62
2023-01-27T22:11:04.248Z,62
2023-01-27T22:12:13.273Z,62
2023-01-27T22:13:21.986Z,62
2023-01-27T22:14:30.190Z,62
2023-01-27T22:15:37.816Z,62
2023-01-27T22:16:45.131Z,62
2023-01-27T22:17:53.225Z,62
2023-01-27T22:19:00.408Z,62
2023-01-27T22:20:07.548Z,62
2023-01-27T22:21:15.355Z,62
2023-01-27T22:22:22.472Z,62
2023-01-27T22:23:29.894Z,62
2023-01-27T22:24:37.913Z,61
2023-01-27T22:25:45.386Z,61
2023-01-27T22:26:52.508Z,62
2023-01-27T22:27:59.989Z,62
2023-01-27T22:29:08.666Z,62
2023-01-27T22:30:18.609Z,61
2023-01-27T22:31:26.021Z,62
2023-01-27T22:32:34.179Z,62
2023-01-27T22:33:41.279Z,62
2023-01-27T22:34:48.622Z,62
2023-01-27T22:35:56.658Z,62
2023-01-27T22:37:06.768Z,62
2023-01-27T22:38:15.107Z,62
2023-01-27T22:39:22.934Z,62
2023-01-27T22:40:30.186Z,62
2023-01-27T22:41:37.780Z,62
2023-01-27T22:42:45.996Z,62
2023-01-27T22:43:53.156Z,62
2023-01-27T22:45:01.276Z,62
2023-01-27T22:46:08.456Z,62
2023-01-27T22:47:17.227Z,62
2023-01-27T22:48:24.392Z,63
2023-01-27T22:49:31.604Z,63
2023-01-27T22:50:38.871Z,62
2023-01-27T22:51:48.453Z,62
2023-01-27T22:52:54.122Z,62
2023-01-27T22:54:01.556Z,62
2023-01-27T22:55:10.554Z,62
2023-01-27T22:56:17.874Z,62
2023-01-27T22:57:25.449Z,62
2023-01-27T22:58:32.301Z,62
2023-01-27T22:59:40.077Z,62
2023-01-27T23:00:47.117Z,63
2023-01-27T23:01:55.864Z,62
2023-01-27T23:03:03.557Z,63
2023-01-27T23:04:11.675Z,63
2023-01-27T23:05:18.967Z,62
2023-01-27T23:06:25.981Z,63
2023-01-27T23:07:33.137Z,63
2023-01-27T23:08:40.153Z,62
2023-01-27T23:09:47.433Z,62
2023-01-27T23:10:54.989Z,62
2023-01-27T23:12:04.850Z,62
2023-01-27T23:13:13.713Z,62
2023-01-27T23:14:22.191Z,62
2023-01-27T23:15:30.702Z,62
2023-01-27T23:16:37.738Z,62
2023-01-27T23:17:45.824Z,62
2023-01-27T23:18:53.657Z,62
2023-01-27T23:20:01.936Z,62
2023-01-27T23:21:09.225Z,63
2023-01-27T23:22:16.931Z,62
2023-01-27T23:23:25.247Z,63
2023-01-27T23:24:32.333Z,63
2023-01-27T23:25:39.453Z,63
2023-01-27T23:26:46.618Z,63
2023-01-27T23:27:55.325Z,63
2023-01-27T23:29:05.163Z,63
2023-01-27T23:30:10.303Z,62
2023-01-27T23:31:17.780Z,63
2023-01-27T23:32:25.968Z,63
2023-01-27T23:33:33.874Z,62
2023-01-27T23:34:42.170Z,62
2023-01-27T23:35:49.034Z,63
2023-01-27T23:37:01.962Z,63
2023-01-27T23:38:19.486Z,63
2023-01-27T23:39:16.809Z,63
2023-01-27T23:40:25.075Z,63
2023-01-27T23:41:33.181Z,63
2023-01-27T23:42:41.129Z,62
2023-01-27T23:43:48.823Z,62
2023-01-27T23:44:57.394Z,62
2023-01-27T23:46:04.587Z,63
2023-01-27T23:47:12.109Z,63
2023-01-27T23:48:19.302Z,63
2023-01-27T23:49:27.222Z,63
2023-01-27T23:50:34.565Z,63
2023-01-27T23:51:42.830Z,63
2023-01-27T23:52:50.989Z,63
2023-01-27T23:54:00.101Z,63
2023-01-27T23:55:07.217Z,63
2023-01-27T23:56:14.268Z,63
2023-01-27T23:57:22.389Z,63
2023-01-27T23:58:29.923Z,63
2023-01-27T23:59:38.210Z,63
